createdAt,value
2023-02-14T00:02:15.876Z,103025.78
2023-02-14T00:07:17.627Z,103021.81
2023-02-14T00:12:20.630Z,103019.13
2023-02-14T00:17:22.279Z,103018.31
2023-02-14T00:22:23.984Z,103015.88
2023-02-14T00:27:27.097Z,103016.09
2023-02-14T00:32:28.816Z,103016.56
2023-02-14T00:37:30.553Z,103025.63
2023-02-14T00:42:33.658Z,103022.66
2023-02-14T00:47:35.383Z,103022.66
2023-02-14T00:52:37.365Z,103024.81
2023-02-14T00:57:40.396Z,103034.59
2023-02-14T01:02:42.130Z,103032.69
2023-02-14T01:07:43.822Z,103024.03
2023-02-14T01:12:46.841Z,103019.88
2023-02-14T01:17:48.665Z,103017.44
2023-02-14T01:22:50.482Z,103011.47
2023-02-14T01:27:53.623Z,103017.13
2023-02-14T01:32:55.741Z,103015.56
2023-02-14T01:37:57.712Z,103006.91
2023-02-14T01:43:00.833Z,103006.00
2023-02-14T01:48:02.546Z,103013.97
2023-02-14T01:53:04.915Z,103012.00
2023-02-14T01:58:09.273Z,102998.38
2023-02-14T02:03:11.009Z,103008.63
2023-02-14T02:08:12.709Z,102992.41
2023-02-14T02:13:16.956Z,102994.59
2023-02-14T02:18:20.057Z,102995.19
2023-02-14T02:23:46.114Z,102990.66
2023-02-14T02:29:00.966Z,102992.59
2023-02-14T02:34:50.824Z,102983.66
2023-02-14T02:40:05.839Z,102987.81
2023-02-14T02:45:12.201Z,102987.13
2023-02-14T02:50:38.283Z,102975.16
2023-02-14T02:56:02.840Z,102970.44
2023-02-14T03:01:09.052Z,102971.63
2023-02-14T03:06:10.768Z,102963.53
2023-02-14T03:11:14.154Z,102965.16
2023-02-14T03:16:27.734Z,102963.28
2023-02-14T03:21:31.913Z,102954.31
2023-02-14T03:26:37.967Z,102954.22
2023-02-14T03:31:44.853Z,102955.47
2023-02-14T03:36:50.193Z,102950.97
2023-02-14T03:42:00.128Z,102946.06
2023-02-14T03:47:04.021Z,102941.03
2023-02-14T03:52:05.721Z,102932.53
2023-02-14T03:57:13.801Z,102931.06
2023-02-14T04:02:17.461Z,102928.28
2023-02-14T04:07:20.127Z,102930.50
2023-02-14T04:12:36.802Z,102931.84
2023-02-14T04:17:58.126Z,102933.78
2023-02-14T04:23:01.357Z,102933.00
2023-02-14T04:28:06.193Z,102929.31
2023-02-14T04:33:08.626Z,102925.38
2023-02-14T04:38:10.373Z,102924.78
2023-02-14T04:43:13.404Z,102926.47
2023-02-14T04:48:15.135Z,102919.09
2023-02-14T04:53:19.272Z,102917.19
2023-02-14T04:58:22.345Z,102913.00
2023-02-14T05:03:24.324Z,102913.94
2023-02-14T05:08:26.043Z,102900.13
2023-02-14T05:13:29.188Z,102905.25
2023-02-14T05:18:30.901Z,102904.56
2023-02-14T05:23:32.671Z,102901.66
2023-02-14T05:28:35.883Z,102905.78
2023-02-14T05:33:37.784Z,102896.50
2023-02-14T05:38:39.594Z,102894.25
2023-02-14T05:43:42.616Z,102891.69
2023-02-14T05:48:45.751Z,102887.41
2023-02-14T05:53:47.452Z,102887.16
2023-02-14T05:58:50.519Z,102891.78
2023-02-14T06:03:52.300Z,102897.72
2023-02-14T06:08:54.082Z,102905.00
2023-02-14T06:13:57.670Z,102905.75
2023-02-14T06:18:59.340Z,102907.00
2023-02-14T06:24:01.150Z,102906.22
2023-02-14T06:29:04.517Z,102903.00
2023-02-14T06:34:06.288Z,102906.78
2023-02-14T06:39:08.007Z,102914.47
2023-02-14T06:44:11.177Z,102908.00
2023-02-14T06:49:12.962Z,102915.81
2023-02-14T06:54:14.730Z,102915.00
2023-02-14T06:59:18.072Z,102917.94
2023-02-14T07:04:19.779Z,102913.72
2023-02-14T07:09:21.593Z,102906.44
2023-02-14T07:14:24.843Z,102899.81
2023-02-14T07:19:26.620Z,102908.00
2023-02-14T07:24:28.421Z,102905.41
2023-02-14T07:29:31.484Z,102907.81
2023-02-14T07:34:33.484Z,102916.97
2023-02-14T07:39:35.177Z,102914.34
2023-02-14T07:44:38.988Z,102910.03
2023-02-14T07:49:40.703Z,102914.38
2023-02-14T07:54:42.415Z,102904.75
2023-02-14T07:59:45.440Z,102911.13
2023-02-14T08:04:47.205Z,102894.66
2023-02-14T08:09:48.923Z,102908.91
2023-02-14T08:14:52.069Z,102909.88
2023-02-14T08:19:53.770Z,102899.16
2023-02-14T08:24:55.487Z,102901.84
2023-02-14T08:29:58.584Z,102906.97
2023-02-14T08:35:00.313Z,102900.97
2023-02-14T08:40:02.014Z,102898.69
2023-02-14T08:45:05.423Z,102904.97
2023-02-14T08:50:08.256Z,102909.13
2023-02-14T08:55:10.206Z,102903.66
2023-02-14T09:00:14.551Z,102903.25
2023-02-14T09:05:16.443Z,102906.06
2023-02-14T09:10:18.665Z,102902.88
2023-02-14T09:15:21.719Z,102905.50
2023-02-14T09:20:23.465Z,102900.53
2023-02-14T09:25:25.295Z,102897.66
2023-02-14T09:30:28.437Z,102893.75
2023-02-14T09:35:30.159Z,102892.25
2023-02-14T09:40:32.120Z,102883.03
2023-02-14T09:45:35.242Z,102888.56
2023-02-14T09:50:40.227Z,102881.19
2023-02-14T09:55:43.736Z,102878.56
2023-02-14T10:00:48.597Z,102873.66
2023-02-14T10:05:55.159Z,102882.41
2023-02-14T10:11:01.899Z,102884.16
2023-02-14T10:16:08.421Z,102871.34
2023-02-14T10:21:14.055Z,102862.88
2023-02-14T10:26:17.361Z,102860.72
2023-02-14T10:31:21.730Z,102866.97
2023-02-14T10:36:31.869Z,102853.75
2023-02-14T10:41:38.304Z,102853.38
2023-02-14T10:46:44.271Z,102855.88
2023-02-14T10:51:46.976Z,102846.63
2023-02-14T10:56:50.480Z,102841.28
2023-02-14T11:01:53.905Z,102843.88
2023-02-14T11:06:55.612Z,102843.53
2023-02-14T11:11:58.776Z,102835.44
2023-02-14T11:17:20.229Z,102835.91
2023-02-14T11:22:28.884Z,102829.09
2023-02-14T11:27:30.611Z,102835.56
2023-02-14T11:32:34.361Z,102834.75
2023-02-14T11:37:37.978Z,102825.34
2023-02-14T11:42:41.730Z,102813.38
2023-02-14T11:47:45.256Z,102808.03
2023-02-14T11:52:49.003Z,102801.78
2023-02-14T11:57:50.762Z,102786.81
2023-02-14T12:02:53.833Z,102784.50
2023-02-14T12:07:56.046Z,102774.56
2023-02-14T12:12:59.691Z,102764.72
2023-02-14T12:18:41.444Z,102770.28
2023-02-14T12:23:45.157Z,102758.19
2023-02-14T12:28:49.906Z,102758.84
2023-02-14T12:33:52.967Z,102754.28
2023-02-14T12:38:57.598Z,102741.34
2023-02-14T12:44:01.310Z,102719.19
2023-02-14T12:49:22.484Z,102713.84
2023-02-14T12:54:32.151Z,102710.53
2023-02-14T12:59:43.341Z,102702.06
2023-02-14T13:05:11.164Z,102701.19
2023-02-14T13:10:26.899Z,102696.03
2023-02-14T13:15:33.726Z,102684.63
2023-02-14T13:20:49.758Z,102687.66
2023-02-14T13:26:13.790Z,102680.81
2023-02-14T13:31:27.601Z,102675.63
2023-02-14T13:36:39.019Z,102663.50
2023-02-14T13:41:42.040Z,102661.56
2023-02-14T13:46:51.660Z,102659.88
2023-02-14T13:52:00.539Z,102657.25
2023-02-14T13:57:03.941Z,102659.63
2023-02-14T14:02:31.129Z,102640.94
2023-02-14T14:07:35.060Z,102653.38
2023-02-14T14:12:41.507Z,102647.63
2023-02-14T14:17:46.050Z,102643.56
2023-02-14T14:22:49.498Z,102648.34
2023-02-14T14:27:51.241Z,102642.78
2023-02-14T14:32:52.929Z,102636.69
2023-02-14T14:37:56.818Z,102633.59
2023-02-14T14:43:06.451Z,102627.41
2023-02-14T14:48:09.393Z,102622.97
2023-02-14T14:53:19.800Z,102620.09
2023-02-14T14:58:39.317Z,102620.81
2023-02-14T15:03:41.059Z,102628.91
2023-02-14T15:08:44.081Z,102622.03
2023-02-14T15:13:49.587Z,102620.59
2023-02-14T15:18:51.610Z,102615.75
2023-02-14T15:23:54.910Z,102605.63
2023-02-14T15:28:57.937Z,102601.69
2023-02-14T15:34:00.174Z,102597.44
2023-02-14T15:39:06.137Z,102589.13
2023-02-14T15:44:18.542Z,102589.31
2023-02-14T15:49:21.045Z,102592.72
2023-02-14T15:54:28.484Z,102597.66
2023-02-14T15:59:31.037Z,102587.44
2023-02-14T16:04:33.805Z,102590.44
2023-02-14T16:09:37.667Z,102593.19
2023-02-14T16:14:40.961Z,102594.59
2023-02-14T16:19:43.566Z,102593.78
2023-02-14T16:24:46.562Z,102604.81
2023-02-14T16:29:48.398Z,102606.81
2023-02-14T16:34:50.259Z,102610.69
2023-02-14T16:39:54.458Z,102600.00
2023-02-14T16:44:56.122Z,102608.94
2023-02-14T16:49:57.782Z,102614.47
2023-02-14T16:55:00.819Z,102615.53
2023-02-14T17:00:03.613Z,102605.25
2023-02-14T17:05:05.945Z,102602.66
2023-02-14T17:10:10.684Z,102599.22
2023-02-14T17:15:14.081Z,102592.94
2023-02-14T17:20:15.860Z,102591.66
2023-02-14T17:25:19.153Z,102589.44
2023-02-14T17:30:21.146Z,102590.53
2023-02-14T17:35:22.853Z,102596.81
2023-02-14T17:40:26.746Z,102590.50
2023-02-14T17:45:28.468Z,102585.72
2023-02-14T17:50:30.243Z,102593.09
2023-02-14T17:55:35.668Z,102586.31
2023-02-14T18:00:37.411Z,102578.06
2023-02-14T18:05:39.165Z,102577.25
2023-02-14T18:10:42.354Z,102569.72
2023-02-14T18:15:45.580Z,102567.84
2023-02-14T18:20:52.952Z,102559.41
2023-02-14T18:25:57.152Z,102544.72
2023-02-14T18:31:02.770Z,102546.69
2023-02-14T18:36:05.352Z,102544.13
2023-02-14T18:41:09.452Z,102535.59
2023-02-14T18:46:12.284Z,102548.59
2023-02-14T18:51:15.475Z,102547.50
2023-02-14T18:56:19.493Z,102548.25
2023-02-14T19:01:22.205Z,102545.94
2023-02-14T19:06:24.028Z,102547.16
2023-02-14T19:11:28.643Z,102540.47
2023-02-14T19:16:31.707Z,102534.78
2023-02-14T19:21:34.038Z,102517.28
2023-02-14T19:26:39.941Z,102526.22
2023-02-14T19:31:45.672Z,102526.38
2023-02-14T19:36:48.050Z,102515.66
2023-02-14T19:41:51.301Z,102514.41
2023-02-14T19:46:56.517Z,102519.69
2023-02-14T19:51:58.830Z,102518.81
2023-02-14T19:57:01.912Z,102512.09
2023-02-14T20:02:03.671Z,102509.97
2023-02-14T20:07:05.475Z,102509.72
2023-02-14T20:12:09.541Z,102503.91
2023-02-14T20:17:11.727Z,102492.34
2023-02-14T20:22:13.563Z,102490.09
2023-02-14T20:27:16.740Z,102488.47
2023-02-14T20:32:18.459Z,102473.38
2023-02-14T20:37:20.162Z,102468.38
2023-02-14T20:42:23.896Z,102466.06
2023-02-14T20:47:25.644Z,102468.75
2023-02-14T20:52:27.936Z,102454.56
2023-02-14T20:57:31.081Z,102452.06
2023-02-14T21:02:32.809Z,102447.28
2023-02-14T21:07:34.533Z,102445.44
2023-02-14T21:12:38.594Z,102448.28
2023-02-14T21:17:40.396Z,102444.38
2023-02-14T21:22:42.143Z,102445.28
2023-02-14T21:27:46.393Z,102444.41
2023-02-14T21:32:48.254Z,102440.25
2023-02-14T21:37:49.982Z,102446.97
2023-02-14T21:42:53.053Z,102435.03
2023-02-14T21:48:13.448Z,102437.31
2023-02-14T21:53:15.298Z,102426.00
2023-02-14T21:58:19.501Z,102429.38
2023-02-14T22:03:21.961Z,102431.38
2023-02-14T22:08:23.659Z,102430.16
2023-02-14T22:13:26.731Z,102426.09
2023-02-14T22:18:28.689Z,102424.13
2023-02-14T22:23:30.914Z,102427.13
2023-02-14T22:28:33.984Z,102412.31
2023-02-14T22:33:37.787Z,102424.44
2023-02-14T22:38:39.802Z,102417.38
2023-02-14T22:43:42.901Z,102410.50
2023-02-14T22:48:44.861Z,102406.03
2023-02-14T22:53:46.721Z,102402.53
2023-02-14T22:58:53.240Z,102394.59
2023-02-14T23:03:55.421Z,102397.09
2023-02-14T23:08:57.194Z,102402.63
2023-02-14T23:14:18.803Z,102394.56
2023-02-14T23:19:40.194Z,102397.47
2023-02-14T23:24:41.931Z,102396.81
2023-02-14T23:29:45.058Z,102390.41
2023-02-14T23:34:46.839Z,102393.41
2023-02-14T23:39:48.585Z,102394.59
2023-02-14T23:44:51.653Z,102398.38
2023-02-14T23:49:53.349Z,102384.56
2023-02-14T23:54:55.074Z,102379.63
2023-02-14T23:59:58.082Z,102370.69
